sensor_id;sensor_type;location;lat;lon;timestamp;P1;durP1;ratioP1;P2;durP2;ratioP2
19358;SDS011;9815;52.334;20.890;2023-08-17T00:01:02;22.58;;;20.27;;
19358;SDS011;9815;52.334;20.890;2023-08-17T00:03:30;22.95;;;19.02;;
19358;SDS011;9815;52.334;20.890;2023-08-17T00:05:59;20.83;;;18.15;;
19358;SDS011;9815;52.334;20.890;2023-08-17T00:08:27;20.63;;;18.48;;
19358;SDS011;9815;52.334;20.890;2023-08-17T00:10:57;21.83;;;17.58;;
19358;SDS011;9815;52.334;20.890;2023-08-17T00:13:25;21.17;;;16.70;;
19358;SDS011;9815;52.334;20.890;2023-08-17T00:15:54;18.30;;;16.30;;
19358;SDS011;9815;52.334;20.890;2023-08-17T00:18:22;18.45;;;16.65;;
19358;SDS011;9815;52.334;20.890;2023-08-17T00:20:50;18.73;;;16.05;;
19358;SDS011;9815;52.334;20.890;2023-08-17T00:23:19;24.77;;;19.13;;
19358;SDS011;9815;52.334;20.890;2023-08-17T00:25:49;20.85;;;18.02;;
19358;SDS011;9815;52.334;20.890;2023-08-17T00:28:19;21.15;;;18.63;;
19358;SDS011;9815;52.334;20.890;2023-08-17T00:30:47;22.67;;;20.25;;
19358;SDS011;9815;52.334;20.890;2023-08-17T00:33:15;24.23;;;21.73;;
19358;SDS011;9815;52.334;20.890;2023-08-17T00:35:45;26.52;;;21.52;;
19358;SDS011;9815;52.334;20.890;2023-08-17T00:38:13;24.35;;;21.77;;
19358;SDS011;9815;52.334;20.890;2023-08-17T00:40:42;29.33;;;26.27;;
19358;SDS011;9815;52.334;20.890;2023-08-17T00:43:10;34.72;;;31.70;;
19358;SDS011;9815;52.334;20.890;2023-08-17T00:45:40;38.83;;;35.35;;
19358;SDS011;9815;52.334;20.890;2023-08-17T00:48:09;41.78;;;38.33;;
19358;SDS011;9815;52.334;20.890;2023-08-17T00:50:39;36.53;;;33.33;;
19358;SDS011;9815;52.334;20.890;2023-08-17T00:53:08;29.05;;;26.33;;
19358;SDS011;9815;52.334;20.890;2023-08-17T00:55:40;29.42;;;26.52;;
19358;SDS011;9815;52.334;20.890;2023-08-17T00:58:08;29.27;;;26.38;;
19358;SDS011;9815;52.334;20.890;2023-08-17T01:00:37;30.08;;;27.30;;
19358;SDS011;9815;52.334;20.890;2023-08-17T01:03:06;32.42;;;29.17;;
19358;SDS011;9815;52.334;20.890;2023-08-17T01:05:37;27.25;;;24.45;;
19358;SDS011;9815;52.334;20.890;2023-08-17T01:08:05;26.20;;;23.63;;
19358;SDS011;9815;52.334;20.890;2023-08-17T01:13:21;28.52;;;25.80;;
19358;SDS011;9815;52.334;20.890;2023-08-17T01:15:58;32.33;;;29.45;;
19358;SDS011;9815;52.334;20.890;2023-08-17T01:18:34;36.72;;;33.22;;
19358;SDS011;9815;52.334;20.890;2023-08-17T01:21:05;43.08;;;39.03;;
19358;SDS011;9815;52.334;20.890;2023-08-17T01:23:37;48.35;;;44.45;;
19358;SDS011;9815;52.334;20.890;2023-08-17T01:26:05;52.72;;;48.47;;
19358;SDS011;9815;52.334;20.890;2023-08-17T01:28:33;55.50;;;51.05;;
19358;SDS011;9815;52.334;20.890;2023-08-17T01:31:07;61.85;;;57.05;;
19358;SDS011;9815;52.334;20.890;2023-08-17T01:33:40;59.05;;;53.97;;
19358;SDS011;9815;52.334;20.890;2023-08-17T01:36:16;69.20;;;63.70;;
19358;SDS011;9815;52.334;20.890;2023-08-17T01:38:49;74.25;;;68.75;;
19358;SDS011;9815;52.334;20.890;2023-08-17T01:41:22;83.63;;;77.40;;
19358;SDS011;9815;52.334;20.890;2023-08-17T01:43:52;89.22;;;82.93;;
19358;SDS011;9815;52.334;20.890;2023-08-17T01:46:21;101.03;;;94.20;;
19358;SDS011;9815;52.334;20.890;2023-08-17T01:48:50;99.45;;;92.45;;
19358;SDS011;9815;52.334;20.890;2023-08-17T01:51:18;95.93;;;88.95;;
19358;SDS011;9815;52.334;20.890;2023-08-17T01:53:47;81.75;;;76.13;;
19358;SDS011;9815;52.334;20.890;2023-08-17T01:56:17;166.52;;;155.18;;
19358;SDS011;9815;52.334;20.890;2023-08-17T01:58:45;155.88;;;145.95;;
19358;SDS011;9815;52.334;20.890;2023-08-17T02:01:14;175.52;;;164.00;;
19358;SDS011;9815;52.334;20.890;2023-08-17T02:03:42;192.63;;;180.95;;
19358;SDS011;9815;52.334;20.890;2023-08-17T02:06:10;194.95;;;182.63;;
19358;SDS011;9815;52.334;20.890;2023-08-17T02:08:39;202.75;;;190.15;;
19358;SDS011;9815;52.334;20.890;2023-08-17T02:11:08;195.50;;;183.45;;
19358;SDS011;9815;52.334;20.890;2023-08-17T02:13:39;188.80;;;177.00;;
19358;SDS011;9815;52.334;20.890;2023-08-17T02:16:07;188.55;;;176.60;;
19358;SDS011;9815;52.334;20.890;2023-08-17T02:18:35;199.88;;;187.52;;
19358;SDS011;9815;52.334;20.890;2023-08-17T02:21:04;207.65;;;195.07;;
19358;SDS011;9815;52.334;20.890;2023-08-17T02:23:32;217.02;;;203.73;;
19358;SDS011;9815;52.334;20.890;2023-08-17T02:26:01;223.15;;;209.63;;
19358;SDS011;9815;52.334;20.890;2023-08-17T02:28:30;213.65;;;200.60;;
19358;SDS011;9815;52.334;20.890;2023-08-17T02:31:00;200.40;;;188.02;;
19358;SDS011;9815;52.334;20.890;2023-08-17T02:33:28;182.30;;;170.77;;
19358;SDS011;9815;52.334;20.890;2023-08-17T02:35:57;168.18;;;157.20;;
19358;SDS011;9815;52.334;20.890;2023-08-17T02:38:28;152.90;;;142.98;;
19358;SDS011;9815;52.334;20.890;2023-08-17T02:40:57;134.13;;;125.30;;
19358;SDS011;9815;52.334;20.890;2023-08-17T02:43:25;124.85;;;116.30;;
19358;SDS011;9815;52.334;20.890;2023-08-17T02:45:54;123.00;;;114.90;;
19358;SDS011;9815;52.334;20.890;2023-08-17T02:48:24;117.38;;;109.78;;
19358;SDS011;9815;52.334;20.890;2023-08-17T02:50:52;122.82;;;114.38;;
19358;SDS011;9815;52.334;20.890;2023-08-17T02:53:21;122.70;;;114.55;;
19358;SDS011;9815;52.334;20.890;2023-08-17T02:55:49;122.25;;;114.03;;
19358;SDS011;9815;52.334;20.890;2023-08-17T02:58:17;132.73;;;123.45;;
19358;SDS011;9815;52.334;20.890;2023-08-17T03:00:45;132.15;;;123.65;;
19358;SDS011;9815;52.334;20.890;2023-08-17T03:03:14;129.75;;;120.82;;
19358;SDS011;9815;52.334;20.890;2023-08-17T03:05:44;120.43;;;112.78;;
19358;SDS011;9815;52.334;20.890;2023-08-17T03:08:12;114.00;;;106.22;;
19358;SDS011;9815;52.334;20.890;2023-08-17T03:10:42;94.40;;;87.80;;
19358;SDS011;9815;52.334;20.890;2023-08-17T03:13:10;84.10;;;77.90;;
19358;SDS011;9815;52.334;20.890;2023-08-17T03:15:39;70.63;;;65.45;;
19358;SDS011;9815;52.334;20.890;2023-08-17T03:18:08;59.92;;;55.05;;
19358;SDS011;9815;52.334;20.890;2023-08-17T03:20:37;59.58;;;55.08;;
19358;SDS011;9815;52.334;20.890;2023-08-17T03:23:07;62.95;;;58.15;;
19358;SDS011;9815;52.334;20.890;2023-08-17T03:25:35;63.50;;;58.90;;
19358;SDS011;9815;52.334;20.890;2023-08-17T03:28:04;67.43;;;62.38;;
19358;SDS011;9815;52.334;20.890;2023-08-17T03:30:33;82.00;;;76.50;;
19358;SDS011;9815;52.334;20.890;2023-08-17T03:33:02;84.03;;;78.05;;
19358;SDS011;9815;52.334;20.890;2023-08-17T03:35:31;72.15;;;66.82;;
19358;SDS011;9815;52.334;20.890;2023-08-17T03:38:00;65.50;;;60.17;;
19358;SDS011;9815;52.334;20.890;2023-08-17T03:40:30;64.50;;;59.65;;
19358;SDS011;9815;52.334;20.890;2023-08-17T03:43:00;65.97;;;61.08;;
19358;SDS011;9815;52.334;20.890;2023-08-17T03:45:28;65.65;;;60.40;;
19358;SDS011;9815;52.334;20.890;2023-08-17T03:47:57;56.10;;;51.72;;
19358;SDS011;9815;52.334;20.890;2023-08-17T03:50:27;51.85;;;47.22;;
19358;SDS011;9815;52.334;20.890;2023-08-17T03:52:56;57.60;;;53.13;;
19358;SDS011;9815;52.334;20.890;2023-08-17T03:55:24;58.38;;;53.75;;
19358;SDS011;9815;52.334;20.890;2023-08-17T03:57:54;65.07;;;59.88;;
19358;SDS011;9815;52.334;20.890;2023-08-17T04:00:22;78.25;;;72.80;;
19358;SDS011;9815;52.334;20.890;2023-08-17T04:02:55;84.22;;;78.13;;
19358;SDS011;9815;52.334;20.890;2023-08-17T04:05:24;95.40;;;88.90;;
19358;SDS011;9815;52.334;20.890;2023-08-17T04:07:52;90.72;;;84.47;;
19358;SDS011;9815;52.334;20.890;2023-08-17T04:10:21;97.45;;;90.35;;
19358;SDS011;9815;52.334;20.890;2023-08-17T04:12:49;101.35;;;94.15;;
19358;SDS011;9815;52.334;20.890;2023-08-17T04:15:20;102.75;;;95.18;;
19358;SDS011;9815;52.334;20.890;2023-08-17T04:17:48;111.38;;;103.95;;
19358;SDS011;9815;52.334;20.890;2023-08-17T04:20:17;106.20;;;99.00;;
19358;SDS011;9815;52.334;20.890;2023-08-17T04:22:45;86.50;;;80.45;;
19358;SDS011;9815;52.334;20.890;2023-08-17T04:25:14;82.80;;;76.78;;
19358;SDS011;9815;52.334;20.890;2023-08-17T04:27:42;84.03;;;78.28;;
19358;SDS011;9815;52.334;20.890;2023-08-17T04:30:11;94.53;;;88.20;;
19358;SDS011;9815;52.334;20.890;2023-08-17T04:32:50;89.97;;;83.70;;
19358;SDS011;9815;52.334;20.890;2023-08-17T04:35:20;89.32;;;83.22;;
19358;SDS011;9815;52.334;20.890;2023-08-17T04:37:48;88.85;;;82.07;;
19358;SDS011;9815;52.334;20.890;2023-08-17T04:40:17;94.50;;;88.22;;
19358;SDS011;9815;52.334;20.890;2023-08-17T04:42:46;99.75;;;92.97;;
19358;SDS011;9815;52.334;20.890;2023-08-17T04:45:15;108.03;;;100.82;;
19358;SDS011;9815;52.334;20.890;2023-08-17T04:47:45;117.25;;;109.55;;
19358;SDS011;9815;52.334;20.890;2023-08-17T04:50:15;147.30;;;137.82;;
19358;SDS011;9815;52.334;20.890;2023-08-17T04:52:43;125.18;;;117.15;;
19358;SDS011;9815;52.334;20.890;2023-08-17T04:55:13;124.30;;;116.10;;
19358;SDS011;9815;52.334;20.890;2023-08-17T04:57:42;96.28;;;89.07;;
19358;SDS011;9815;52.334;20.890;2023-08-17T05:00:13;78.05;;;71.75;;
19358;SDS011;9815;52.334;20.890;2023-08-17T05:02:43;64.85;;;59.33;;
19358;SDS011;9815;52.334;20.890;2023-08-17T05:05:12;56.05;;;51.00;;
19358;SDS011;9815;52.334;20.890;2023-08-17T05:07:42;56.33;;;51.40;;
19358;SDS011;9815;52.334;20.890;2023-08-17T05:10:10;56.40;;;51.60;;
19358;SDS011;9815;52.334;20.890;2023-08-17T05:12:40;77.95;;;71.97;;
19358;SDS011;9815;52.334;20.890;2023-08-17T05:15:09;88.63;;;82.35;;
19358;SDS011;9815;52.334;20.890;2023-08-17T05:17:39;75.18;;;69.07;;
19358;SDS011;9815;52.334;20.890;2023-08-17T05:20:10;84.70;;;78.47;;
19358;SDS011;9815;52.334;20.890;2023-08-17T05:22:42;49.45;;;45.15;;
19358;SDS011;9815;52.334;20.890;2023-08-17T05:25:11;48.03;;;43.78;;
19358;SDS011;9815;52.334;20.890;2023-08-17T05:27:40;62.45;;;57.00;;
19358;SDS011;9815;52.334;20.890;2023-08-17T05:30:09;50.58;;;46.15;;
19358;SDS011;9815;52.334;20.890;2023-08-17T05:32:39;37.55;;;33.83;;
19358;SDS011;9815;52.334;20.890;2023-08-17T05:35:08;40.15;;;36.55;;
19358;SDS011;9815;52.334;20.890;2023-08-17T05:37:37;44.78;;;40.58;;
19358;SDS011;9815;52.334;20.890;2023-08-17T05:40:07;40.90;;;37.13;;
19358;SDS011;9815;52.334;20.890;2023-08-17T05:42:36;20.17;;;16.48;;
19358;SDS011;9815;52.334;20.890;2023-08-17T05:45:05;15.45;;;12.50;;
19358;SDS011;9815;52.334;20.890;2023-08-17T05:47:34;14.10;;;11.23;;
19358;SDS011;9815;52.334;20.890;2023-08-17T05:50:03;14.68;;;10.45;;
19358;SDS011;9815;52.334;20.890;2023-08-17T05:52:31;13.98;;;10.50;;
19358;SDS011;9815;52.334;20.890;2023-08-17T05:55:00;16.67;;;10.07;;
19358;SDS011;9815;52.334;20.890;2023-08-17T05:57:30;14.60;;;8.70;;
19358;SDS011;9815;52.334;20.890;2023-08-17T05:59:58;20.38;;;9.63;;
19358;SDS011;9815;52.334;20.890;2023-08-17T06:02:29;14.18;;;9.00;;
19358;SDS011;9815;52.334;20.890;2023-08-17T06:04:59;12.18;;;8.68;;
19358;SDS011;9815;52.334;20.890;2023-08-17T06:07:27;14.35;;;8.77;;
19358;SDS011;9815;52.334;20.890;2023-08-17T06:09:55;11.57;;;8.40;;
19358;SDS011;9815;52.334;20.890;2023-08-17T06:12:24;13.35;;;9.15;;
19358;SDS011;9815;52.334;20.890;2023-08-17T06:14:54;30.85;;;10.15;;
19358;SDS011;9815;52.334;20.890;2023-08-17T06:17:22;15.82;;;8.52;;
19358;SDS011;9815;52.334;20.890;2023-08-17T06:19:51;13.98;;;10.38;;
19358;SDS011;9815;52.334;20.890;2023-08-17T06:22:19;17.20;;;9.70;;
19358;SDS011;9815;52.334;20.890;2023-08-17T06:24:47;27.02;;;10.27;;
19358;SDS011;9815;52.334;20.890;2023-08-17T06:27:16;21.58;;;11.45;;
19358;SDS011;9815;52.334;20.890;2023-08-17T06:29:44;20.00;;;11.38;;
19358;SDS011;9815;52.334;20.890;2023-08-17T06:32:14;22.33;;;10.57;;
19358;SDS011;9815;52.334;20.890;2023-08-17T06:34:43;23.90;;;10.65;;
19358;SDS011;9815;52.334;20.890;2023-08-17T06:37:12;25.30;;;10.18;;
19358;SDS011;9815;52.334;20.890;2023-08-17T06:39:40;21.05;;;10.05;;
19358;SDS011;9815;52.334;20.890;2023-08-17T06:42:09;17.83;;;8.50;;
19358;SDS011;9815;52.334;20.890;2023-08-17T06:44:37;17.25;;;8.38;;
19358;SDS011;9815;52.334;20.890;2023-08-17T06:47:07;11.95;;;7.63;;
19358;SDS011;9815;52.334;20.890;2023-08-17T06:49:36;15.43;;;7.82;;
19358;SDS011;9815;52.334;20.890;2023-08-17T06:52:05;13.38;;;7.45;;
19358;SDS011;9815;52.334;20.890;2023-08-17T06:54:33;16.55;;;7.10;;
19358;SDS011;9815;52.334;20.890;2023-08-17T06:57:02;14.88;;;6.28;;
19358;SDS011;9815;52.334;20.890;2023-08-17T06:59:31;14.07;;;5.53;;
19358;SDS011;9815;52.334;20.890;2023-08-17T07:01:59;7.85;;;5.82;;
19358;SDS011;9815;52.334;20.890;2023-08-17T07:04:28;14.90;;;6.18;;
19358;SDS011;9815;52.334;20.890;2023-08-17T07:06:58;9.50;;;6.32;;
19358;SDS011;9815;52.334;20.890;2023-08-17T07:09:27;16.55;;;5.90;;
19358;SDS011;9815;52.334;20.890;2023-08-17T07:11:56;14.05;;;6.00;;
19358;SDS011;9815;52.334;20.890;2023-08-17T07:14:25;13.48;;;5.43;;
19358;SDS011;9815;52.334;20.890;2023-08-17T07:16:54;14.68;;;6.22;;
19358;SDS011;9815;52.334;20.890;2023-08-17T07:19:24;10.02;;;5.90;;
19358;SDS011;9815;52.334;20.890;2023-08-17T07:22:14;10.40;;;5.72;;
19358;SDS011;9815;52.334;20.890;2023-08-17T07:24:46;7.45;;;5.57;;
19358;SDS011;9815;52.334;20.890;2023-08-17T07:27:15;10.95;;;5.97;;
19358;SDS011;9815;52.334;20.890;2023-08-17T07:29:43;9.93;;;5.90;;
19358;SDS011;9815;52.334;20.890;2023-08-17T07:32:12;14.20;;;6.28;;
19358;SDS011;9815;52.334;20.890;2023-08-17T07:34:40;10.93;;;6.20;;
19358;SDS011;9815;52.334;20.890;2023-08-17T07:37:09;16.50;;;6.65;;
19358;SDS011;9815;52.334;20.890;2023-08-17T07:39:42;11.95;;;6.53;;
19358;SDS011;9815;52.334;20.890;2023-08-17T07:42:11;13.80;;;6.78;;
19358;SDS011;9815;52.334;20.890;2023-08-17T07:44:39;17.23;;;6.28;;
19358;SDS011;9815;52.334;20.890;2023-08-17T07:47:08;10.10;;;6.15;;
19358;SDS011;9815;52.334;20.890;2023-08-17T07:49:37;16.55;;;6.25;;
19358;SDS011;9815;52.334;20.890;2023-08-17T07:52:05;10.75;;;6.22;;
19358;SDS011;9815;52.334;20.890;2023-08-17T07:54:34;11.63;;;6.18;;
19358;SDS011;9815;52.334;20.890;2023-08-17T07:57:04;13.02;;;6.43;;
19358;SDS011;9815;52.334;20.890;2023-08-17T07:59:34;12.57;;;6.25;;
19358;SDS011;9815;52.334;20.890;2023-08-17T08:02:03;14.65;;;7.13;;
19358;SDS011;9815;52.334;20.890;2023-08-17T08:04:32;10.75;;;6.47;;
19358;SDS011;9815;52.334;20.890;2023-08-17T08:07:00;9.80;;;6.82;;
19358;SDS011;9815;52.334;20.890;2023-08-17T08:09:29;9.57;;;6.35;;
19358;SDS011;9815;52.334;20.890;2023-08-17T08:11:58;12.15;;;6.22;;
19358;SDS011;9815;52.334;20.890;2023-08-17T08:14:27;10.75;;;6.15;;
19358;SDS011;9815;52.334;20.890;2023-08-17T08:16:56;13.95;;;6.45;;
19358;SDS011;9815;52.334;20.890;2023-08-17T08:19:24;15.27;;;7.00;;
19358;SDS011;9815;52.334;20.890;2023-08-17T08:21:53;20.55;;;7.35;;
19358;SDS011;9815;52.334;20.890;2023-08-17T08:24:21;13.20;;;6.75;;
19358;SDS011;9815;52.334;20.890;2023-08-17T08:27:03;18.40;;;6.90;;
19358;SDS011;9815;52.334;20.890;2023-08-17T08:29:33;11.95;;;6.80;;
19358;SDS011;9815;52.334;20.890;2023-08-17T08:32:02;12.18;;;6.43;;
19358;SDS011;9815;52.334;20.890;2023-08-17T08:34:31;12.07;;;6.90;;
19358;SDS011;9815;52.334;20.890;2023-08-17T08:36:59;14.70;;;7.60;;
19358;SDS011;9815;52.334;20.890;2023-08-17T08:39:28;13.25;;;7.55;;
19358;SDS011;9815;52.334;20.890;2023-08-17T08:41:56;17.83;;;7.65;;
19358;SDS011;9815;52.334;20.890;2023-08-17T08:44:25;15.77;;;7.07;;
19358;SDS011;9815;52.334;20.890;2023-08-17T08:46:55;11.80;;;7.05;;
19358;SDS011;9815;52.334;20.890;2023-08-17T08:49:26;16.95;;;6.63;;
19358;SDS011;9815;52.334;20.890;2023-08-17T08:51:56;16.50;;;7.05;;
19358;SDS011;9815;52.334;20.890;2023-08-17T08:54:27;12.57;;;7.15;;
19358;SDS011;9815;52.334;20.890;2023-08-17T08:57:04;10.93;;;7.10;;
19358;SDS011;9815;52.334;20.890;2023-08-17T08:59:41;15.20;;;7.25;;
19358;SDS011;9815;52.334;20.890;2023-08-17T09:02:14;12.70;;;7.78;;
19358;SDS011;9815;52.334;20.890;2023-08-17T09:04:43;12.55;;;7.45;;
19358;SDS011;9815;52.334;20.890;2023-08-17T09:07:12;11.65;;;7.13;;
19358;SDS011;9815;52.334;20.890;2023-08-17T09:09:41;20.35;;;7.47;;
19358;SDS011;9815;52.334;20.890;2023-08-17T09:12:12;19.65;;;7.32;;
19358;SDS011;9815;52.334;20.890;2023-08-17T09:14:55;17.15;;;7.45;;
19358;SDS011;9815;52.334;20.890;2023-08-17T09:17:25;12.55;;;7.35;;
19358;SDS011;9815;52.334;20.890;2023-08-17T09:19:54;13.40;;;7.57;;
19358;SDS011;9815;52.334;20.890;2023-08-17T09:22:23;9.70;;;7.22;;
19358;SDS011;9815;52.334;20.890;2023-08-17T09:24:52;17.80;;;7.20;;
19358;SDS011;9815;52.334;20.890;2023-08-17T09:27:21;13.90;;;7.97;;
19358;SDS011;9815;52.334;20.890;2023-08-17T09:29:49;11.35;;;7.53;;
19358;SDS011;9815;52.334;20.890;2023-08-17T09:32:18;12.13;;;6.80;;
19358;SDS011;9815;52.334;20.890;2023-08-17T09:34:49;14.15;;;7.18;;
19358;SDS011;9815;52.334;20.890;2023-08-17T09:37:17;18.73;;;7.13;;
19358;SDS011;9815;52.334;20.890;2023-08-17T09:39:49;15.75;;;7.03;;
19358;SDS011;9815;52.334;20.890;2023-08-17T09:42:17;16.95;;;7.32;;
19358;SDS011;9815;52.334;20.890;2023-08-17T09:44:45;14.93;;;7.63;;
19358;SDS011;9815;52.334;20.890;2023-08-17T09:47:14;13.10;;;6.55;;
19358;SDS011;9815;52.334;20.890;2023-08-17T09:49:48;13.88;;;6.80;;
19358;SDS011;9815;52.334;20.890;2023-08-17T09:52:18;13.07;;;6.93;;
19358;SDS011;9815;52.334;20.890;2023-08-17T09:54:49;11.02;;;6.45;;
19358;SDS011;9815;52.334;20.890;2023-08-17T09:57:21;19.08;;;6.43;;
19358;SDS011;9815;52.334;20.890;2023-08-17T09:59:50;15.98;;;5.93;;
19358;SDS011;9815;52.334;20.890;2023-08-17T10:02:22;12.63;;;6.43;;
19358;SDS011;9815;52.334;20.890;2023-08-17T10:04:53;16.08;;;6.20;;
19358;SDS011;9815;52.334;20.890;2023-08-17T10:07:26;14.45;;;6.10;;
19358;SDS011;9815;52.334;20.890;2023-08-17T10:10:00;9.90;;;6.07;;
19358;SDS011;9815;52.334;20.890;2023-08-17T10:12:32;14.85;;;7.03;;
19358;SDS011;9815;52.334;20.890;2023-08-17T10:15:06;9.27;;;6.03;;
19358;SDS011;9815;52.334;20.890;2023-08-17T10:17:46;13.52;;;5.65;;
19358;SDS011;9815;52.334;20.890;2023-08-17T10:20:24;15.50;;;5.35;;
19358;SDS011;9815;52.334;20.890;2023-08-17T10:22:58;8.73;;;5.22;;
19358;SDS011;9815;52.334;20.890;2023-08-17T10:25:35;19.35;;;6.47;;
19358;SDS011;9815;52.334;20.890;2023-08-17T10:28:04;11.23;;;5.00;;
19358;SDS011;9815;52.334;20.890;2023-08-17T10:30:33;14.98;;;5.35;;
19358;SDS011;9815;52.334;20.890;2023-08-17T10:33:02;8.57;;;5.13;;
19358;SDS011;9815;52.334;20.890;2023-08-17T10:35:35;17.60;;;5.55;;
19358;SDS011;9815;52.334;20.890;2023-08-17T10:38:04;7.05;;;4.95;;
19358;SDS011;9815;52.334;20.890;2023-08-17T10:40:36;7.63;;;4.28;;
19358;SDS011;9815;52.334;20.890;2023-08-17T10:43:07;11.38;;;4.07;;
19358;SDS011;9815;52.334;20.890;2023-08-17T10:45:35;6.97;;;3.90;;
19358;SDS011;9815;52.334;20.890;2023-08-17T10:51:02;8.10;;;4.15;;
19358;SDS011;9815;52.334;20.890;2023-08-17T10:53:35;8.88;;;3.95;;
19358;SDS011;9815;52.334;20.890;2023-08-17T10:56:13;10.32;;;4.43;;
19358;SDS011;9815;52.334;20.890;2023-08-17T10:58:42;8.95;;;4.00;;
19358;SDS011;9815;52.334;20.890;2023-08-17T11:01:11;7.47;;;3.97;;
19358;SDS011;9815;52.334;20.890;2023-08-17T11:03:48;7.15;;;4.10;;
19358;SDS011;9815;52.334;20.890;2023-08-17T11:06:39;4.18;;;2.53;;
19358;SDS011;9815;52.334;20.890;2023-08-17T11:09:07;4.53;;;2.60;;
19358;SDS011;9815;52.334;20.890;2023-08-17T11:11:36;7.43;;;2.88;;
19358;SDS011;9815;52.334;20.890;2023-08-17T11:14:05;8.82;;;3.35;;
19358;SDS011;9815;52.334;20.890;2023-08-17T11:16:33;7.03;;;3.92;;
19358;SDS011;9815;52.334;20.890;2023-08-17T11:19:02;7.03;;;4.18;;
19358;SDS011;9815;52.334;20.890;2023-08-17T11:21:31;6.75;;;3.65;;
19358;SDS011;9815;52.334;20.890;2023-08-17T11:24:01;9.07;;;3.70;;
19358;SDS011;9815;52.334;20.890;2023-08-17T11:26:29;7.68;;;4.10;;
19358;SDS011;9815;52.334;20.890;2023-08-17T11:29:01;11.80;;;4.03;;
19358;SDS011;9815;52.334;20.890;2023-08-17T11:31:31;6.35;;;4.15;;
19358;SDS011;9815;52.334;20.890;2023-08-17T11:34:00;10.02;;;3.92;;
19358;SDS011;9815;52.334;20.890;2023-08-17T11:36:29;7.40;;;3.40;;
19358;SDS011;9815;52.334;20.890;2023-08-17T11:38:57;7.65;;;3.90;;
19358;SDS011;9815;52.334;20.890;2023-08-17T11:41:27;8.07;;;3.40;;
19358;SDS011;9815;52.334;20.890;2023-08-17T11:43:56;7.18;;;3.67;;
19358;SDS011;9815;52.334;20.890;2023-08-17T11:46:25;6.10;;;3.92;;
19358;SDS011;9815;52.334;20.890;2023-08-17T11:48:58;12.30;;;4.22;;
19358;SDS011;9815;52.334;20.890;2023-08-17T11:51:30;5.55;;;3.88;;
19358;SDS011;9815;52.334;20.890;2023-08-17T11:53:59;8.05;;;3.10;;
19358;SDS011;9815;52.334;20.890;2023-08-17T11:56:31;4.65;;;3.00;;
19358;SDS011;9815;52.334;20.890;2023-08-17T11:59:07;4.60;;;3.15;;
19358;SDS011;9815;52.334;20.890;2023-08-17T12:01:37;9.52;;;3.10;;
19358;SDS011;9815;52.334;20.890;2023-08-17T12:04:06;9.13;;;3.25;;
19358;SDS011;9815;52.334;20.890;2023-08-17T12:06:35;7.57;;;3.20;;
19358;SDS011;9815;52.334;20.890;2023-08-17T12:09:05;9.07;;;3.63;;
19358;SDS011;9815;52.334;20.890;2023-08-17T12:11:35;6.82;;;3.05;;
19358;SDS011;9815;52.334;20.890;2023-08-17T12:14:08;6.05;;;2.50;;
19358;SDS011;9815;52.334;20.890;2023-08-17T12:16:45;6.72;;;2.60;;
19358;SDS011;9815;52.334;20.890;2023-08-17T12:19:15;4.40;;;3.00;;
19358;SDS011;9815;52.334;20.890;2023-08-17T12:21:43;5.80;;;2.72;;
19358;SDS011;9815;52.334;20.890;2023-08-17T12:24:12;4.82;;;2.75;;
19358;SDS011;9815;52.334;20.890;2023-08-17T12:26:42;7.05;;;2.90;;
19358;SDS011;9815;52.334;20.890;2023-08-17T12:29:11;4.38;;;2.40;;
19358;SDS011;9815;52.334;20.890;2023-08-17T12:31:40;5.05;;;2.50;;
19358;SDS011;9815;52.334;20.890;2023-08-17T12:34:08;5.57;;;2.50;;
19358;SDS011;9815;52.334;20.890;2023-08-17T12:36:37;6.07;;;2.90;;
19358;SDS011;9815;52.334;20.890;2023-08-17T12:39:05;4.47;;;2.35;;
19358;SDS011;9815;52.334;20.890;2023-08-17T12:41:34;5.15;;;2.72;;
19358;SDS011;9815;52.334;20.890;2023-08-17T12:44:04;4.97;;;2.88;;
19358;SDS011;9815;52.334;20.890;2023-08-17T12:46:33;4.80;;;2.70;;
19358;SDS011;9815;52.334;20.890;2023-08-17T12:49:01;5.90;;;2.38;;
19358;SDS011;9815;52.334;20.890;2023-08-17T12:51:30;6.10;;;2.47;;
19358;SDS011;9815;52.334;20.890;2023-08-17T12:53:58;10.60;;;2.88;;
19358;SDS011;9815;52.334;20.890;2023-08-17T12:56:27;4.50;;;2.70;;
19358;SDS011;9815;52.334;20.890;2023-08-17T12:58:55;8.82;;;2.80;;
19358;SDS011;9815;52.334;20.890;2023-08-17T13:01:30;3.33;;;2.35;;
19358;SDS011;9815;52.334;20.890;2023-08-17T13:03:58;7.47;;;2.70;;
19358;SDS011;9815;52.334;20.890;2023-08-17T13:06:27;3.22;;;2.30;;
19358;SDS011;9815;52.334;20.890;2023-08-17T13:09:09;3.42;;;2.50;;
19358;SDS011;9815;52.334;20.890;2023-08-17T13:11:37;6.22;;;2.80;;
19358;SDS011;9815;52.334;20.890;2023-08-17T13:14:06;7.50;;;3.00;;
19358;SDS011;9815;52.334;20.890;2023-08-17T13:16:36;4.20;;;2.42;;
19358;SDS011;9815;52.334;20.890;2023-08-17T13:19:04;5.38;;;2.75;;
19358;SDS011;9815;52.334;20.890;2023-08-17T13:21:33;5.22;;;2.80;;
19358;SDS011;9815;52.334;20.890;2023-08-17T13:24:01;7.38;;;2.63;;
19358;SDS011;9815;52.334;20.890;2023-08-17T13:26:30;4.47;;;2.53;;
19358;SDS011;9815;52.334;20.890;2023-08-17T13:28:58;5.47;;;2.53;;
19358;SDS011;9815;52.334;20.890;2023-08-17T13:31:26;6.07;;;2.88;;
19358;SDS011;9815;52.334;20.890;2023-08-17T13:33:56;5.93;;;2.92;;
19358;SDS011;9815;52.334;20.890;2023-08-17T13:36:25;5.80;;;2.72;;
19358;SDS011;9815;52.334;20.890;2023-08-17T13:38:54;5.90;;;3.15;;
19358;SDS011;9815;52.334;20.890;2023-08-17T13:41:23;7.22;;;2.92;;
19358;SDS011;9815;52.334;20.890;2023-08-17T13:43:51;5.55;;;2.85;;
19358;SDS011;9815;52.334;20.890;2023-08-17T13:46:19;4.28;;;2.88;;
19358;SDS011;9815;52.334;20.890;2023-08-17T13:48:48;3.85;;;2.78;;
19358;SDS011;9815;52.334;20.890;2023-08-17T13:51:18;6.18;;;3.10;;
19358;SDS011;9815;52.334;20.890;2023-08-17T13:53:46;6.57;;;2.88;;
19358;SDS011;9815;52.334;20.890;2023-08-17T13:56:14;5.10;;;2.80;;
19358;SDS011;9815;52.334;20.890;2023-08-17T13:58:44;5.65;;;2.72;;
19358;SDS011;9815;52.334;20.890;2023-08-17T14:01:12;5.70;;;2.97;;
19358;SDS011;9815;52.334;20.890;2023-08-17T14:03:41;5.97;;;3.00;;
19358;SDS011;9815;52.334;20.890;2023-08-17T14:06:10;6.13;;;3.30;;
19358;SDS011;9815;52.334;20.890;2023-08-17T14:08:39;4.43;;;2.70;;
19358;SDS011;9815;52.334;20.890;2023-08-17T14:11:08;10.80;;;3.40;;
19358;SDS011;9815;52.334;20.890;2023-08-17T14:13:36;6.95;;;2.90;;
19358;SDS011;9815;52.334;20.890;2023-08-17T14:16:05;3.92;;;2.95;;
19358;SDS011;9815;52.334;20.890;2023-08-17T14:18:34;6.93;;;2.85;;
19358;SDS011;9815;52.334;20.890;2023-08-17T14:21:02;5.15;;;3.20;;
19358;SDS011;9815;52.334;20.890;2023-08-17T14:23:31;4.57;;;3.03;;
19358;SDS011;9815;52.334;20.890;2023-08-17T14:26:00;5.97;;;2.38;;
19358;SDS011;9815;52.334;20.890;2023-08-17T14:28:29;6.82;;;3.03;;
19358;SDS011;9815;52.334;20.890;2023-08-17T14:30:57;10.52;;;2.97;;
19358;SDS011;9815;52.334;20.890;2023-08-17T14:33:25;5.05;;;3.00;;
19358;SDS011;9815;52.334;20.890;2023-08-17T14:35:54;7.80;;;3.13;;
19358;SDS011;9815;52.334;20.890;2023-08-17T14:38:22;5.80;;;3.38;;
19358;SDS011;9815;52.334;20.890;2023-08-17T14:40:57;7.47;;;3.22;;
19358;SDS011;9815;52.334;20.890;2023-08-17T14:43:27;5.70;;;3.22;;
19358;SDS011;9815;52.334;20.890;2023-08-17T14:45:55;6.65;;;3.17;;
19358;SDS011;9815;52.334;20.890;2023-08-17T14:48:24;5.60;;;3.40;;
19358;SDS011;9815;52.334;20.890;2023-08-17T14:50:52;5.80;;;3.40;;